Time;durP1;ratioP1;P1;durP2;ratioP2;P2;SDS_P1;SDS_P2;PMS_P1;PMS_P2;Temp;Humidity;BMP_temperature;BMP_pressure;BME280_temperature;BME280_humidity;BME280_pressure;Samples;Min_cycle;Max_cycle;Signal;HPM_P1;HPM_P2
2021/10/14 00:00:45;;;;;;;;;22.00;21.25;;;;;15.24;94.55;100520.47;5054265;28;10430;-69
2021/10/14 00:03:41;;;;;;;;;30.00;29.00;;;;;15.27;93.97;100528.94;5055237;28;9708;-69
2021/10/14 00:06:37;;;;;;;;;30.50;27.50;;;;;15.55;92.99;100539.03;5056168;28;9801;-69
2021/10/14 00:09:32;;;;;;;;;24.25;24.25;;;;;15.30;93.95;100533.75;5034530;28;9900;-69
2021/10/14 00:12:28;;;;;;;;;26.25;26.25;;;;;15.23;95.06;100536.38;5035095;28;9966;-69
2021/10/14 00:15:25;;;;;;;;;32.75;32.75;;;;;15.52;93.18;100528.63;5052384;28;9888;-69
2021/10/14 00:18:21;;;;;;;;;23.75;23.75;;;;;15.38;94.06;100543.06;5054146;28;9878;-69
2021/10/14 00:21:16;;;;;;;;;25.00;25.00;;;;;15.55;93.21;100547.38;5053979;28;10022;-69
2021/10/14 00:24:12;;;;;;;;;27.75;27.50;;;;;15.24;95.12;100539.97;5053878;28;10666;-69
2021/10/14 00:27:08;;;;;;;;;31.75;28.50;;;;;15.13;95.28;100541.75;5054317;28;9974;-69
2021/10/14 00:30:05;;;;;;;;;25.75;25.75;;;;;15.20;96.04;100541.91;5053695;28;10186;-69
2021/10/14 00:33:00;;;;;;;;;32.75;31.25;;;;;15.37;94.71;100537.88;5053994;28;10099;-69
2021/10/14 00:35:56;;;;;;;;;29.50;26.75;;;;;15.00;96.88;100543.84;5055219;28;9946;-68
2021/10/14 00:38:51;;;;;;;;;26.50;25.50;;;;;14.97;96.70;100544.59;5053862;28;10060;-69
2021/10/14 00:41:47;;;;;;;;;36.00;32.00;;;;;14.89;97.61;100543.63;5040543;28;9769;-69
2021/10/14 00:44:48;;;;;;;;;35.25;33.50;;;;;15.25;96.19;100552.72;5053655;28;10125;-69
2021/10/14 00:47:44;;;;;;;;;35.25;32.75;;;;;15.35;95.30;100549.38;5055098;28;10353;-69
2021/10/14 00:50:40;;;;;;;;;31.00;31.00;;;;;15.42;94.97;100543.16;5053458;28;10207;-69
2021/10/14 00:53:39;;;;;;;;;22.00;22.00;;;;;15.10;96.53;100559.16;5055651;28;10760;-69
2021/10/14 00:56:35;;;;;;;;;34.75;32.50;;;;;15.25;96.26;100569.44;5053029;28;10360;-69
2021/10/14 00:59:31;;;;;;;;;41.50;35.25;;;;;15.40;95.04;100576.94;5054174;28;10418;-69
2021/10/14 01:02:26;;;;;;;;;32.75;30.50;;;;;15.17;96.38;100582.41;5033562;28;10202;-68
2021/10/14 01:05:22;;;;;;;;;28.25;28.25;;;;;15.45;94.97;100589.78;5034107;28;10160;-68
2021/10/14 01:08:17;;;;;;;;;30.25;29.50;;;;;15.32;95.01;100577.97;5034095;28;10019;-68
2021/10/14 01:11:13;;;;;;;;;29.25;29.25;;;;;15.40;95.34;100590.06;5033018;28;10215;-68
2021/10/14 01:14:08;;;;;;;;;35.75;31.25;;;;;15.42;95.10;100599.69;5033520;28;10136;-68
2021/10/14 01:17:04;;;;;;;;;35.25;33.50;;;;;15.36;96.17;100606.72;5049593;28;10179;-68
2021/10/14 01:20:00;;;;;;;;;34.50;33.00;;;;;15.28;95.72;100610.53;5052550;28;10341;-68
2021/10/14 01:22:57;;;;;;;;;30.50;29.00;;;;;15.11;96.16;100616.53;5053022;28;10159;-68
2021/10/14 01:25:52;;;;;;;;;31.50;31.50;;;;;15.26;97.39;100618.44;5052975;28;9988;-68
2021/10/14 01:28:48;;;;;;;;;20.50;20.50;;;;;14.96;96.58;100626.50;5052699;28;9953;-69
2021/10/14 01:31:44;;;;;;;;;21.25;21.25;;;;;14.96;97.13;100623.72;5052370;28;10060;-69
2021/10/14 01:34:39;;;;;;;;;14.00;14.00;;;;;15.11;97.01;100633.22;5052825;28;9551;-69
2021/10/14 01:37:35;;;;;;;;;16.75;16.75;;;;;15.21;96.13;100646.59;5053215;28;9790;-69
2021/10/14 01:40:30;;;;;;;;;14.25;14.25;;;;;15.33;94.68;100654.00;5040668;28;9673;-69
2021/10/14 01:43:26;;;;;;;;;19.75;19.75;;;;;15.27;92.73;100670.22;5053420;28;9709;-69
2021/10/14 01:46:22;;;;;;;;;15.25;15.25;;;;;15.15;89.81;100678.66;5051527;28;9908;-69
2021/10/14 01:49:17;;;;;;;;;15.25;15.25;;;;;15.03;89.00;100685.16;5053956;28;9538;-69
2021/10/14 01:52:13;;;;;;;;;15.25;15.25;;;;;14.96;88.46;100702.50;5052316;28;9803;-69
2021/10/14 01:55:08;;;;;;;;;1.75;1.75;;;;;14.76;88.35;100702.78;5052388;28;9861;-69
2021/10/14 01:58:04;;;;;;;;;13.50;13.50;;;;;14.83;87.98;100716.88;5052459;28;9908;-69
2021/10/14 02:01:00;;;;;;;;;24.00;24.00;;;;;14.63;87.15;100716.75;5052252;28;10120;-69
2021/10/14 02:03:55;;;;;;;;;26.50;26.50;;;;;14.45;87.34;100726.59;5052437;28;10027;-69
2021/10/14 02:06:51;;;;;;;;;35.25;33.75;;;;;14.36;87.24;100728.72;5038941;28;10236;-69
2021/10/14 02:09:46;;;;;;;;;32.00;31.00;;;;;14.37;87.32;100733.94;5051885;28;11310;-69
2021/10/14 02:12:42;;;;;;;;;26.50;26.50;;;;;14.15;87.08;100746.44;5052098;28;10677;-69
2021/10/14 02:15:37;;;;;;;;;25.00;25.00;;;;;14.11;86.76;100750.28;5051868;28;10124;-70
2021/10/14 02:18:33;;;;;;;;;24.00;22.00;;;;;14.12;87.02;100758.28;5033820;28;10199;-69
2021/10/14 02:21:29;;;;;;;;;21.75;21.75;;;;;13.97;85.97;100756.22;5045960;28;10290;-69
2021/10/14 02:24:24;;;;;;;;;16.75;16.75;;;;;14.03;86.01;100773.47;5052978;28;10249;-69
2021/10/14 02:27:20;;;;;;;;;19.25;19.25;;;;;13.82;85.90;100782.00;5052062;28;11091;-69
2021/10/14 02:30:15;;;;;;;;;19.00;19.00;;;;;13.84;86.02;100799.94;5051845;28;10311;-69
2021/10/14 02:33:11;;;;;;;;;18.25;18.25;;;;;13.84;85.46;100804.69;5051930;28;10258;-69
2021/10/14 02:36:07;;;;;;;;;13.00;13.00;;;;;13.64;85.47;100812.78;5052186;28;10278;-68
2021/10/14 02:39:04;;;;;;;;;14.00;14.00;;;;;13.73;85.07;100825.78;5051869;28;10910;-69
2021/10/14 02:42:00;;;;;;;;;11.75;11.75;;;;;13.56;86.22;100830.41;5038503;28;10268;-69
2021/10/14 02:44:55;;;;;;;;;17.00;16.50;;;;;13.62;85.68;100842.91;5051025;28;10190;-69
2021/10/14 02:47:51;;;;;;;;;11.25;11.25;;;;;13.63;85.45;100846.50;5049650;28;10249;-69
2021/10/14 02:50:47;;;;;;;;;11.00;11.00;;;;;13.49;85.69;100854.34;5051454;28;10375;-69
2021/10/14 02:53:42;;;;;;;;;12.00;12.00;;;;;13.50;85.24;100856.00;5051724;28;10069;-69
2021/10/14 02:56:38;;;;;;;;;9.25;9.25;;;;;13.56;85.40;100882.38;5054201;28;10032;-68
2021/10/14 02:59:34;;;;;;;;;9.00;9.00;;;;;13.38;85.19;100890.13;5055146;28;10094;-68
2021/10/14 03:02:29;;;;;;;;;7.50;7.50;;;;;13.43;84.66;100894.66;5055733;28;10170;-68
2021/10/14 03:05:25;;;;;;;;;6.50;6.50;;;;;13.31;84.90;100912.09;5068361;28;10179;-68
2021/10/14 03:08:20;;;;;;;;;6.25;6.25;;;;;13.21;84.48;100910.59;5075514;28;9918;-68
2021/10/14 03:11:16;;;;;;;;;7.50;7.50;;;;;13.15;84.53;100919.44;5036913;28;10059;-68
2021/10/14 03:14:11;;;;;;;;;7.00;7.00;;;;;13.12;84.31;100929.28;5041212;28;10052;-69
2021/10/14 03:17:09;;;;;;;;;8.75;8.75;;;;;13.10;84.20;100928.78;5047247;28;10290;-68
2021/10/14 03:20:05;;;;;;;;;7.75;7.75;;;;;12.99;84.37;100939.53;5035397;28;10178;-68
2021/10/14 03:23:00;;;;;;;;;5.00;5.00;;;;;13.06;83.96;100942.56;5035383;28;10394;-68
2021/10/14 03:25:56;;;;;;;;;9.25;7.00;;;;;13.01;83.90;100958.59;5035466;28;10190;-68
2021/10/14 03:28:24;;;;;;;;;6.25;6.25;;;;;13.00;83.37;100948.66;5036581;28;10286;-68
2021/10/14 03:31:20;;;;;;;;;9.00;8.25;;;;;12.96;83.23;100953.28;5036612;28;10106;-68
2021/10/14 03:34:15;;;;;;;;;4.75;4.75;;;;;13.03;83.29;100953.50;5036758;28;10115;-68
2021/10/14 03:37:11;;;;;;;;;2.25;2.25;;;;;12.83;82.71;100969.06;5035017;28;10293;-68
2021/10/14 03:40:07;;;;;;;;;8.25;8.25;;;;;13.01;82.88;100961.38;5049300;28;10112;-69
2021/10/14 03:43:03;;;;;;;;;9.00;9.00;;;;;12.98;83.19;100974.00;5055219;28;10248;-68
2021/10/14 03:45:59;;;;;;;;;7.25;7.25;;;;;12.99;82.63;100981.16;5055025;28;10236;-69
2021/10/14 03:48:54;;;;;;;;;7.00;7.00;;;;;12.95;82.97;100984.94;5055235;28;10074;-68
2021/10/14 03:51:50;;;;;;;;;7.75;7.75;;;;;12.79;83.02;100999.44;5074553;28;10241;-68
2021/10/14 03:54:45;;;;;;;;;6.25;6.25;;;;;12.98;81.90;101007.31;5074890;28;10268;-68
2021/10/14 03:57:41;;;;;;;;;6.25;6.25;;;;;12.90;81.72;101015.72;5075814;28;10246;-68
2021/10/14 04:00:36;;;;;;;;;5.25;5.25;;;;;12.97;81.50;101027.09;5074527;28;10195;-68
2021/10/14 04:03:32;;;;;;;;;9.75;9.75;;;;;12.90;81.74;101032.38;5074683;28;10118;-68
2021/10/14 04:06:27;;;;;;;;;7.00;7.00;;;;;12.73;82.08;101042.44;5061822;28;10333;-68
2021/10/14 04:09:23;;;;;;;;;10.00;10.00;;;;;12.64;81.17;101050.00;5067885;28;10355;-67
2021/10/14 04:12:19;;;;;;;;;8.00;8.00;;;;;12.70;81.56;101045.06;5054555;28;10262;-68
2021/10/14 04:15:15;;;;;;;;;8.00;8.00;;;;;12.74;81.60;101055.16;5041049;28;10325;-67
2021/10/14 04:18:12;;;;;;;;;5.00;5.00;;;;;12.83;81.48;101059.84;5055589;28;10313;-68
2021/10/14 04:21:08;;;;;;;;;7.00;7.00;;;;;12.82;81.01;101074.88;5060809;28;10455;-69
2021/10/14 04:24:04;;;;;;;;;9.00;9.00;;;;;12.86;81.39;101079.41;5074457;28;10341;-68
2021/10/14 04:27:00;;;;;;;;;6.25;6.25;;;;;12.88;81.00;101079.06;5053928;28;10301;-67
2021/10/14 04:29:27;;;;;;;;;6.25;6.25;;;;;12.89;79.95;101087.06;5055176;28;10237;-67
2021/10/14 04:31:55;;;;;;;;;6.50;6.50;;;;;12.86;80.81;101089.69;5054772;28;10241;-68
2021/10/14 04:34:24;;;;;;;;;7.75;7.75;;;;;12.89;80.97;101097.38;5055313;28;10304;-67
2021/10/14 04:37:02;;;;;;;;;5.00;5.00;;;;;12.81;80.48;101112.91;5055919;28;10161;-68
2021/10/14 04:39:30;;;;;;;;;8.50;8.25;;;;;12.83;80.52;101113.38;5054887;28;10243;-68
2021/10/14 04:42:26;;;;;;;;;9.00;9.00;;;;;12.64;80.65;101107.44;5045529;28;10171;-68
2021/10/14 04:45:07;;;;;;;;;12.50;12.50;;;;;12.65;81.38;101125.72;5035691;28;10491;-68
2021/10/14 04:47:36;;;;;;;;;26.75;26.75;;;;;12.60;80.94;101126.75;5054607;28;10559;-68
2021/10/14 04:50:05;;;;;;;;;27.50;27.00;;;;;12.62;80.94;101145.81;5054630;28;10739;-68
2021/10/14 04:53:01;;;;;;;;;14.00;14.00;;;;;12.67;80.23;101157.56;5054166;28;11025;-68
2021/10/14 04:55:50;;;;;;;;;24.00;24.00;;;;;12.74;80.39;101170.91;5047223;28;10574;-68
2021/10/14 04:58:18;;;;;;;;;20.25;20.25;;;;;12.67;79.99;101174.22;5054282;28;10605;-68
2021/10/14 05:00:45;;;;;;;;;23.25;22.25;;;;;12.69;79.74;101183.00;5049976;28;10728;-68
